sensor_id;sensor_type;location;lat;lon;timestamp;temperature;humidity
21495;DHT22;10909;53.590;10.054;2023-02-15T00:02:14;9.50;73.20
21495;DHT22;10909;53.590;10.054;2023-02-15T00:04:41;9.50;73.30
21495;DHT22;10909;53.590;10.054;2023-02-15T00:07:18;9.50;73.30
21495;DHT22;10909;53.590;10.054;2023-02-15T00:09:48;9.40;73.40
21495;DHT22;10909;53.590;10.054;2023-02-15T00:12:18;9.40;73.50
21495;DHT22;10909;53.590;10.054;2023-02-15T00:14:44;9.40;73.60
21495;DHT22;10909;53.590;10.054;2023-02-15T00:17:13;9.40;73.80
21495;DHT22;10909;53.590;10.054;2023-02-15T00:19:39;9.50;73.90
21495;DHT22;10909;53.590;10.054;2023-02-15T00:22:06;9.50;73.90
21495;DHT22;10909;53.590;10.054;2023-02-15T00:24:33;9.50;74.10
21495;DHT22;10909;53.590;10.054;2023-02-15T00:26:59;9.50;74.80
21495;DHT22;10909;53.590;10.054;2023-02-15T00:29:25;9.50;74.10
21495;DHT22;10909;53.590;10.054;2023-02-15T00:31:51;9.30;74.00
21495;DHT22;10909;53.590;10.054;2023-02-15T00:34:27;9.50;74.20
21495;DHT22;10909;53.590;10.054;2023-02-15T00:36:56;9.40;74.20
21495;DHT22;10909;53.590;10.054;2023-02-15T00:39:30;9.50;74.20
21495;DHT22;10909;53.590;10.054;2023-02-15T00:41:57;9.40;74.20
21495;DHT22;10909;53.590;10.054;2023-02-15T00:44:30;9.30;74.20
21495;DHT22;10909;53.590;10.054;2023-02-15T00:46:56;9.30;74.50
21495;DHT22;10909;53.590;10.054;2023-02-15T00:49:27;9.30;74.50
21495;DHT22;10909;53.590;10.054;2023-02-15T00:54:26;9.30;74.60
21495;DHT22;10909;53.590;10.054;2023-02-15T00:59:27;9.30;74.80
21495;DHT22;10909;53.590;10.054;2023-02-15T01:01:56;9.30;74.80
21495;DHT22;10909;53.590;10.054;2023-02-15T01:04:23;9.30;74.90
21495;DHT22;10909;53.590;10.054;2023-02-15T01:06:49;9.30;74.80
21495;DHT22;10909;53.590;10.054;2023-02-15T01:09:22;9.30;74.70
21495;DHT22;10909;53.590;10.054;2023-02-15T01:11:49;9.30;74.90
21495;DHT22;10909;53.590;10.054;2023-02-15T01:14:22;9.30;75.00
21495;DHT22;10909;53.590;10.054;2023-02-15T01:16:51;9.30;74.90
21495;DHT22;10909;53.590;10.054;2023-02-15T01:19:17;9.30;75.00
21495;DHT22;10909;53.590;10.054;2023-02-15T01:21:45;9.30;74.80
21495;DHT22;10909;53.590;10.054;2023-02-15T01:24:13;9.30;74.80
21495;DHT22;10909;53.590;10.054;2023-02-15T01:26:40;9.30;75.00
21495;DHT22;10909;53.590;10.054;2023-02-15T01:29:08;9.30;75.90
21495;DHT22;10909;53.590;10.054;2023-02-15T01:31:37;9.30;75.30
21495;DHT22;10909;53.590;10.054;2023-02-15T01:34:04;9.30;75.40
21495;DHT22;10909;53.590;10.054;2023-02-15T01:36:36;9.30;75.40
21495;DHT22;10909;53.590;10.054;2023-02-15T01:41:35;9.30;75.40
21495;DHT22;10909;53.590;10.054;2023-02-15T01:44:03;9.30;75.30
21495;DHT22;10909;53.590;10.054;2023-02-15T01:46:45;9.40;75.40
21495;DHT22;10909;53.590;10.054;2023-02-15T01:49:17;9.40;75.40
21495;DHT22;10909;53.590;10.054;2023-02-15T01:51:46;9.30;75.30
21495;DHT22;10909;53.590;10.054;2023-02-15T01:54:25;9.30;75.30
21495;DHT22;10909;53.590;10.054;2023-02-15T01:56:58;9.30;75.30
21495;DHT22;10909;53.590;10.054;2023-02-15T01:59:28;9.30;75.00
21495;DHT22;10909;53.590;10.054;2023-02-15T02:01:59;9.20;74.80
21495;DHT22;10909;53.590;10.054;2023-02-15T02:04:48;9.20;75.10
21495;DHT22;10909;53.590;10.054;2023-02-15T02:07:18;9.20;75.50
21495;DHT22;10909;53.590;10.054;2023-02-15T02:09:45;9.10;75.50
21495;DHT22;10909;53.590;10.054;2023-02-15T02:12:11;9.10;75.60
21495;DHT22;10909;53.590;10.054;2023-02-15T02:14:38;9.10;75.60
21495;DHT22;10909;53.590;10.054;2023-02-15T02:37:22;9.20;76.10
21495;DHT22;10909;53.590;10.054;2023-02-15T02:40:22;9.10;76.10
21495;DHT22;10909;53.590;10.054;2023-02-15T02:42:59;9.10;76.10
21495;DHT22;10909;53.590;10.054;2023-02-15T02:45:46;9.10;76.20
21495;DHT22;10909;53.590;10.054;2023-02-15T02:48:19;9.10;76.30
21495;DHT22;10909;53.590;10.054;2023-02-15T02:50:47;9.10;76.20
21495;DHT22;10909;53.590;10.054;2023-02-15T02:53:20;9.10;76.30
21495;DHT22;10909;53.590;10.054;2023-02-15T02:55:54;9.20;76.40
21495;DHT22;10909;53.590;10.054;2023-02-15T02:58:44;9.10;77.00
21495;DHT22;10909;53.590;10.054;2023-02-15T03:01:23;9.10;76.30
21495;DHT22;10909;53.590;10.054;2023-02-15T03:03:58;9.10;76.20
21495;DHT22;10909;53.590;10.054;2023-02-15T03:09:18;9.10;76.10
21495;DHT22;10909;53.590;10.054;2023-02-15T03:11:47;9.10;76.10
21495;DHT22;10909;53.590;10.054;2023-02-15T03:14:16;9.00;76.00
21495;DHT22;10909;53.590;10.054;2023-02-15T03:16:47;9.00;76.10
21495;DHT22;10909;53.590;10.054;2023-02-15T03:19:26;9.00;76.10
21495;DHT22;10909;53.590;10.054;2023-02-15T03:22:06;9.00;76.40
21495;DHT22;10909;53.590;10.054;2023-02-15T03:24:41;9.00;76.50
21495;DHT22;10909;53.590;10.054;2023-02-15T03:27:16;9.00;76.20
21495;DHT22;10909;53.590;10.054;2023-02-15T03:29:47;8.90;76.10
21495;DHT22;10909;53.590;10.054;2023-02-15T03:32:18;8.90;76.30
21495;DHT22;10909;53.590;10.054;2023-02-15T03:34:51;8.90;76.30
21495;DHT22;10909;53.590;10.054;2023-02-15T03:37:28;8.90;76.40
21495;DHT22;10909;53.590;10.054;2023-02-15T03:40:23;8.90;76.50
21495;DHT22;10909;53.590;10.054;2023-02-15T03:43:29;8.90;76.50
21495;DHT22;10909;53.590;10.054;2023-02-15T03:46:11;8.90;76.60
21495;DHT22;10909;53.590;10.054;2023-02-15T03:48:44;8.90;76.50
21495;DHT22;10909;53.590;10.054;2023-02-15T03:51:18;9.00;76.70
21495;DHT22;10909;53.590;10.054;2023-02-15T03:54:25;8.80;76.60
21495;DHT22;10909;53.590;10.054;2023-02-15T04:00:02;8.90;76.70
21495;DHT22;10909;53.590;10.054;2023-02-15T04:05:31;8.90;76.80
21495;DHT22;10909;53.590;10.054;2023-02-15T04:08:00;8.80;76.80
21495;DHT22;10909;53.590;10.054;2023-02-15T04:10:26;8.90;76.90
21495;DHT22;10909;53.590;10.054;2023-02-15T04:13:14;8.90;76.90
21495;DHT22;10909;53.590;10.054;2023-02-15T04:15:42;8.80;76.70
21495;DHT22;10909;53.590;10.054;2023-02-15T04:21:19;8.80;76.70
21495;DHT22;10909;53.590;10.054;2023-02-15T04:24:04;8.80;76.70
21495;DHT22;10909;53.590;10.054;2023-02-15T04:26:49;8.80;76.70
21495;DHT22;10909;53.590;10.054;2023-02-15T04:29:20;8.90;76.60
21495;DHT22;10909;53.590;10.054;2023-02-15T04:31:56;8.80;76.60
21495;DHT22;10909;53.590;10.054;2023-02-15T04:34:24;8.80;76.40
21495;DHT22;10909;53.590;10.054;2023-02-15T04:36:52;8.70;76.40
21495;DHT22;10909;53.590;10.054;2023-02-15T04:39:18;8.70;76.40
21495;DHT22;10909;53.590;10.054;2023-02-15T04:41:45;8.60;76.40
21495;DHT22;10909;53.590;10.054;2023-02-15T04:44:15;8.60;76.60
21495;DHT22;10909;53.590;10.054;2023-02-15T04:46:42;8.60;76.80
21495;DHT22;10909;53.590;10.054;2023-02-15T04:49:08;8.60;76.80
21495;DHT22;10909;53.590;10.054;2023-02-15T04:51:34;8.60;76.90
21495;DHT22;10909;53.590;10.054;2023-02-15T04:54:01;8.50;76.80
21495;DHT22;10909;53.590;10.054;2023-02-15T04:56:27;8.60;76.80
21495;DHT22;10909;53.590;10.054;2023-02-15T04:58:59;8.60;76.70
21495;DHT22;10909;53.590;10.054;2023-02-15T05:01:26;8.60;76.80
21495;DHT22;10909;53.590;10.054;2023-02-15T05:03:52;8.50;76.90
21495;DHT22;10909;53.590;10.054;2023-02-15T05:06:18;8.60;76.90
21495;DHT22;10909;53.590;10.054;2023-02-15T05:08:44;8.50;76.90
21495;DHT22;10909;53.590;10.054;2023-02-15T05:11:10;8.50;76.80
21495;DHT22;10909;53.590;10.054;2023-02-15T05:13:49;8.40;76.70
21495;DHT22;10909;53.590;10.054;2023-02-15T05:16:15;8.50;76.70
21495;DHT22;10909;53.590;10.054;2023-02-15T05:18:43;8.40;76.60
21495;DHT22;10909;53.590;10.054;2023-02-15T05:21:15;8.40;76.70
21495;DHT22;10909;53.590;10.054;2023-02-15T05:23:42;8.40;76.80
21495;DHT22;10909;53.590;10.054;2023-02-15T05:26:11;8.40;76.90
21495;DHT22;10909;53.590;10.054;2023-02-15T05:28:57;8.40;77.00
21495;DHT22;10909;53.590;10.054;2023-02-15T05:31:24;8.40;76.80
21495;DHT22;10909;53.590;10.054;2023-02-15T05:33:53;8.40;77.90
21495;DHT22;10909;53.590;10.054;2023-02-15T05:36:23;8.50;78.60
21495;DHT22;10909;53.590;10.054;2023-02-15T05:38:50;8.50;78.70
21495;DHT22;10909;53.590;10.054;2023-02-15T05:41:16;8.60;78.20
21495;DHT22;10909;53.590;10.054;2023-02-15T05:43:42;8.60;77.70
21495;DHT22;10909;53.590;10.054;2023-02-15T05:46:08;8.60;77.50
21495;DHT22;10909;53.590;10.054;2023-02-15T05:48:35;8.70;77.20
21495;DHT22;10909;53.590;10.054;2023-02-15T05:51:08;8.60;76.70
21495;DHT22;10909;53.590;10.054;2023-02-15T05:53:37;8.60;76.70
21495;DHT22;10909;53.590;10.054;2023-02-15T05:56:05;8.50;76.60
21495;DHT22;10909;53.590;10.054;2023-02-15T05:58:40;8.60;76.70
21495;DHT22;10909;53.590;10.054;2023-02-15T06:01:15;8.50;76.60
21495;DHT22;10909;53.590;10.054;2023-02-15T06:03:55;8.40;76.60
21495;DHT22;10909;53.590;10.054;2023-02-15T06:06:24;8.40;76.60
21495;DHT22;10909;53.590;10.054;2023-02-15T06:08:55;8.30;76.50
21495;DHT22;10909;53.590;10.054;2023-02-15T06:11:23;8.30;76.60
21495;DHT22;10909;53.590;10.054;2023-02-15T06:13:51;8.30;76.60
21495;DHT22;10909;53.590;10.054;2023-02-15T06:16:22;8.20;76.40
21495;DHT22;10909;53.590;10.054;2023-02-15T06:18:50;8.30;76.50
21495;DHT22;10909;53.590;10.054;2023-02-15T06:21:18;8.20;76.60
21495;DHT22;10909;53.590;10.054;2023-02-15T06:23:53;8.20;76.60
21495;DHT22;10909;53.590;10.054;2023-02-15T06:26:24;8.20;76.70
21495;DHT22;10909;53.590;10.054;2023-02-15T06:28:50;8.10;76.70
21495;DHT22;10909;53.590;10.054;2023-02-15T06:31:19;8.10;76.70
21495;DHT22;10909;53.590;10.054;2023-02-15T06:33:45;8.10;76.80
21495;DHT22;10909;53.590;10.054;2023-02-15T06:36:14;8.10;76.90
21495;DHT22;10909;53.590;10.054;2023-02-15T06:38:40;8.10;76.90
21495;DHT22;10909;53.590;10.054;2023-02-15T06:41:08;8.00;76.90
21495;DHT22;10909;53.590;10.054;2023-02-15T06:43:35;8.00;76.90
21495;DHT22;10909;53.590;10.054;2023-02-15T06:46:05;8.00;76.90
21495;DHT22;10909;53.590;10.054;2023-02-15T06:48:36;8.00;76.90
21495;DHT22;10909;53.590;10.054;2023-02-15T06:51:03;8.00;76.80
21495;DHT22;10909;53.590;10.054;2023-02-15T06:53:30;8.10;76.90
21495;DHT22;10909;53.590;10.054;2023-02-15T06:56:07;8.00;76.80
21495;DHT22;10909;53.590;10.054;2023-02-15T06:58:38;7.90;76.90
21495;DHT22;10909;53.590;10.054;2023-02-15T07:01:08;8.00;77.00
21495;DHT22;10909;53.590;10.054;2023-02-15T07:03:37;7.90;77.10
21495;DHT22;10909;53.590;10.054;2023-02-15T07:06:05;8.00;77.20
21495;DHT22;10909;53.590;10.054;2023-02-15T07:08:35;8.00;77.20
21495;DHT22;10909;53.590;10.054;2023-02-15T07:11:05;8.00;77.20
21495;DHT22;10909;53.590;10.054;2023-02-15T07:13:51;8.00;77.20
21495;DHT22;10909;53.590;10.054;2023-02-15T07:16:26;8.00;77.10
21495;DHT22;10909;53.590;10.054;2023-02-15T07:18:59;8.00;77.00
21495;DHT22;10909;53.590;10.054;2023-02-15T07:21:37;7.90;77.10
21495;DHT22;10909;53.590;10.054;2023-02-15T07:24:07;7.90;77.30
21495;DHT22;10909;53.590;10.054;2023-02-15T07:26:34;7.90;77.30
21495;DHT22;10909;53.590;10.054;2023-02-15T07:29:11;7.90;77.30
21495;DHT22;10909;53.590;10.054;2023-02-15T07:31:38;8.00;77.40
21495;DHT22;10909;53.590;10.054;2023-02-15T07:34:16;8.00;77.40
21495;DHT22;10909;53.590;10.054;2023-02-15T07:36:42;8.00;77.40
21495;DHT22;10909;53.590;10.054;2023-02-15T07:39:10;8.00;77.40
21495;DHT22;10909;53.590;10.054;2023-02-15T07:44:13;8.00;77.30
21495;DHT22;10909;53.590;10.054;2023-02-15T07:46:41;8.00;77.30
21495;DHT22;10909;53.590;10.054;2023-02-15T07:49:07;8.00;77.40
21495;DHT22;10909;53.590;10.054;2023-02-15T07:51:33;8.00;77.30
21495;DHT22;10909;53.590;10.054;2023-02-15T07:56:44;8.00;77.30
21495;DHT22;10909;53.590;10.054;2023-02-15T07:59:10;8.00;77.40
21495;DHT22;10909;53.590;10.054;2023-02-15T08:01:37;8.00;77.30
21495;DHT22;10909;53.590;10.054;2023-02-15T08:04:05;8.00;77.20
21495;DHT22;10909;53.590;10.054;2023-02-15T08:06:35;8.00;77.20
21495;DHT22;10909;53.590;10.054;2023-02-15T08:09:06;8.00;77.30
21495;DHT22;10909;53.590;10.054;2023-02-15T08:14:15;8.00;78.00
21495;DHT22;10909;53.590;10.054;2023-02-15T08:16:49;8.00;77.70
21495;DHT22;10909;53.590;10.054;2023-02-15T08:21:57;8.00;77.20
21495;DHT22;10909;53.590;10.054;2023-02-15T08:24:29;8.10;77.20
21495;DHT22;10909;53.590;10.054;2023-02-15T08:27:06;8.00;77.20
21495;DHT22;10909;53.590;10.054;2023-02-15T08:32:17;8.00;77.30
21495;DHT22;10909;53.590;10.054;2023-02-15T08:34:47;8.00;77.20
21495;DHT22;10909;53.590;10.054;2023-02-15T08:37:14;8.00;77.10
21495;DHT22;10909;53.590;10.054;2023-02-15T08:39:41;8.00;77.20
21495;DHT22;10909;53.590;10.054;2023-02-15T08:42:08;8.00;77.20
21495;DHT22;10909;53.590;10.054;2023-02-15T08:47:07;7.90;77.20
21495;DHT22;10909;53.590;10.054;2023-02-15T08:49:37;7.90;77.20
21495;DHT22;10909;53.590;10.054;2023-02-15T08:52:04;7.90;77.00
21495;DHT22;10909;53.590;10.054;2023-02-15T08:54:32;7.90;76.90
21495;DHT22;10909;53.590;10.054;2023-02-15T08:57:09;7.90;76.90
21495;DHT22;10909;53.590;10.054;2023-02-15T08:59:36;7.90;77.00
21495;DHT22;10909;53.590;10.054;2023-02-15T09:02:02;7.90;77.00
21495;DHT22;10909;53.590;10.054;2023-02-15T09:04:28;7.90;77.10
21495;DHT22;10909;53.590;10.054;2023-02-15T09:06:54;7.80;77.10
21495;DHT22;10909;53.590;10.054;2023-02-15T09:11:53;7.80;77.10
21495;DHT22;10909;53.590;10.054;2023-02-15T09:16:53;7.90;77.50
21495;DHT22;10909;53.590;10.054;2023-02-15T09:19:21;7.90;77.50
21495;DHT22;10909;53.590;10.054;2023-02-15T09:24:24;7.90;77.40
21495;DHT22;10909;53.590;10.054;2023-02-15T09:26:51;8.00;77.60
21495;DHT22;10909;53.590;10.054;2023-02-15T09:29:19;8.00;77.50
21495;DHT22;10909;53.590;10.054;2023-02-15T09:31:47;8.00;77.50
21495;DHT22;10909;53.590;10.054;2023-02-15T09:34:16;8.00;77.60
21495;DHT22;10909;53.590;10.054;2023-02-15T09:36:44;8.00;77.60
21495;DHT22;10909;53.590;10.054;2023-02-15T09:39:20;8.10;77.60
21495;DHT22;10909;53.590;10.054;2023-02-15T09:42:16;8.10;77.50
21495;DHT22;10909;53.590;10.054;2023-02-15T09:45:01;8.10;77.50
21495;DHT22;10909;53.590;10.054;2023-02-15T09:50:49;8.20;77.50
21495;DHT22;10909;53.590;10.054;2023-02-15T09:53:42;8.20;77.60
21495;DHT22;10909;53.590;10.054;2023-02-15T09:56:22;8.20;77.50
21495;DHT22;10909;53.590;10.054;2023-02-15T09:59:04;8.30;77.50
21495;DHT22;10909;53.590;10.054;2023-02-15T10:01:57;8.30;77.50
21495;DHT22;10909;53.590;10.054;2023-02-15T10:21:49;8.50;77.20
21495;DHT22;10909;53.590;10.054;2023-02-15T10:24:38;8.50;77.20
21495;DHT22;10909;53.590;10.054;2023-02-15T10:27:27;8.50;77.30
21495;DHT22;10909;53.590;10.054;2023-02-15T10:30:09;8.60;77.30
21495;DHT22;10909;53.590;10.054;2023-02-15T10:35:35;8.60;77.40
21495;DHT22;10909;53.590;10.054;2023-02-15T10:39:20;8.70;77.60
21495;DHT22;10909;53.590;10.054;2023-02-15T10:48:06;8.80;77.20
21495;DHT22;10909;53.590;10.054;2023-02-15T10:56:20;8.80;78.70
21495;DHT22;10909;53.590;10.054;2023-02-15T11:07:16;9.40;78.60
21495;DHT22;10909;53.590;10.054;2023-02-15T11:10:33;9.60;78.10
21495;DHT22;10909;53.590;10.054;2023-02-15T11:12:38;9.70;77.60
21495;DHT22;10909;53.590;10.054;2023-02-15T11:15:39;9.80;77.00
21495;DHT22;10909;53.590;10.054;2023-02-15T11:18:26;9.90;76.70
21495;DHT22;10909;53.590;10.054;2023-02-15T11:23:30;10.00;76.50
21495;DHT22;10909;53.590;10.054;2023-02-15T11:26:04;10.10;76.40
21495;DHT22;10909;53.590;10.054;2023-02-15T11:28:52;10.20;76.40
21495;DHT22;10909;53.590;10.054;2023-02-15T11:31:25;10.30;76.10
21495;DHT22;10909;53.590;10.054;2023-02-15T11:33:58;10.40;75.70
21495;DHT22;10909;53.590;10.054;2023-02-15T11:36:29;10.50;75.80
21495;DHT22;10909;53.590;10.054;2023-02-15T11:39:10;10.50;75.50
21495;DHT22;10909;53.590;10.054;2023-02-15T11:41:44;10.50;75.10
21495;DHT22;10909;53.590;10.054;2023-02-15T11:44:26;10.50;74.90
21495;DHT22;10909;53.590;10.054;2023-02-15T11:46:55;10.50;74.60
21495;DHT22;10909;53.590;10.054;2023-02-15T11:49:31;10.50;74.70
21495;DHT22;10909;53.590;10.054;2023-02-15T11:52:05;10.40;74.60
21495;DHT22;10909;53.590;10.054;2023-02-15T11:54:45;10.50;74.60
21495;DHT22;10909;53.590;10.054;2023-02-15T12:00:14;10.30;75.10
21495;DHT22;10909;53.590;10.054;2023-02-15T12:02:46;10.30;74.20
21495;DHT22;10909;53.590;10.054;2023-02-15T12:05:17;10.20;74.80
21495;DHT22;10909;53.590;10.054;2023-02-15T12:08:11;10.20;74.90
21495;DHT22;10909;53.590;10.054;2023-02-15T12:13:21;10.20;75.00
21495;DHT22;10909;53.590;10.054;2023-02-15T12:15:53;10.20;75.60
21495;DHT22;10909;53.590;10.054;2023-02-15T12:18:33;10.30;75.80
21495;DHT22;10909;53.590;10.054;2023-02-15T12:21:11;10.30;76.00
21495;DHT22;10909;53.590;10.054;2023-02-15T12:23:51;10.40;75.90
21495;DHT22;10909;53.590;10.054;2023-02-15T12:26:29;10.40;75.80
21495;DHT22;10909;53.590;10.054;2023-02-15T12:29:00;10.50;76.00
21495;DHT22;10909;53.590;10.054;2023-02-15T12:31:40;10.50;76.00
21495;DHT22;10909;53.590;10.054;2023-02-15T12:34:23;10.60;75.80
21495;DHT22;10909;53.590;10.054;2023-02-15T12:36:55;10.60;75.60
21495;DHT22;10909;53.590;10.054;2023-02-15T12:39:31;10.70;75.40
21495;DHT22;10909;53.590;10.054;2023-02-15T12:41:59;10.60;75.10
21495;DHT22;10909;53.590;10.054;2023-02-15T12:44:30;10.60;75.10
21495;DHT22;10909;53.590;10.054;2023-02-15T12:49:37;10.80;75.70
21495;DHT22;10909;53.590;10.054;2023-02-15T12:52:04;10.80;75.60
21495;DHT22;10909;53.590;10.054;2023-02-15T12:54:42;10.90;75.70
21495;DHT22;10909;53.590;10.054;2023-02-15T13:00:05;11.10;75.70
21495;DHT22;10909;53.590;10.054;2023-02-15T13:02:41;11.20;75.80
21495;DHT22;10909;53.590;10.054;2023-02-15T13:07:45;11.40;76.00
21495;DHT22;10909;53.590;10.054;2023-02-15T13:10:42;11.30;75.70
21495;DHT22;10909;53.590;10.054;2023-02-15T13:13:22;11.60;75.70
21495;DHT22;10909;53.590;10.054;2023-02-15T13:15:51;11.80;77.00
21495;DHT22;10909;53.590;10.054;2023-02-15T13:18:39;12.00;78.20
21495;DHT22;10909;53.590;10.054;2023-02-15T13:21:17;12.30;78.10
21495;DHT22;10909;53.590;10.054;2023-02-15T13:24:05;12.70;78.70
21495;DHT22;10909;53.590;10.054;2023-02-15T13:26:34;13.10;77.90
21495;DHT22;10909;53.590;10.054;2023-02-15T13:29:28;13.40;78.90
21495;DHT22;10909;53.590;10.054;2023-02-15T13:31:57;13.90;77.30
21495;DHT22;10909;53.590;10.054;2023-02-15T13:34:33;14.30;79.10
21495;DHT22;10909;53.590;10.054;2023-02-15T13:48:54;16.30;75.80
21495;DHT22;10909;53.590;10.054;2023-02-15T14:01:14;17.50;70.80
21495;DHT22;10909;53.590;10.054;2023-02-15T14:20:08;17.60;71.20
21495;DHT22;10909;53.590;10.054;2023-02-15T14:23:11;17.70;70.40
21495;DHT22;10909;53.590;10.054;2023-02-15T14:25:51;17.90;69.00
21495;DHT22;10909;53.590;10.054;2023-02-15T14:30:56;18.20;70.80
21495;DHT22;10909;53.590;10.054;2023-02-15T14:33:35;18.30;70.20
21495;DHT22;10909;53.590;10.054;2023-02-15T14:36:04;18.50;68.20
21495;DHT22;10909;53.590;10.054;2023-02-15T14:38:59;18.60;69.80
21495;DHT22;10909;53.590;10.054;2023-02-15T14:41:40;18.80;67.40
21495;DHT22;10909;53.590;10.054;2023-02-15T14:46:46;19.00;67.20
21495;DHT22;10909;53.590;10.054;2023-02-15T14:49:50;19.00;65.80
21495;DHT22;10909;53.590;10.054;2023-02-15T14:52:10;18.90;65.50
21495;DHT22;10909;53.590;10.054;2023-02-15T14:59:37;18.60;64.40
21495;DHT22;10909;53.590;10.054;2023-02-15T15:02:21;18.50;64.20
21495;DHT22;10909;53.590;10.054;2023-02-15T15:07:42;18.30;62.70
21495;DHT22;10909;53.590;10.054;2023-02-15T15:12:43;18.00;63.60
21495;DHT22;10909;53.590;10.054;2023-02-15T15:18:51;17.70;62.30
21495;DHT22;10909;53.590;10.054;2023-02-15T15:20:52;17.50;62.80
21495;DHT22;10909;53.590;10.054;2023-02-15T15:26:22;17.20;63.70
21495;DHT22;10909;53.590;10.054;2023-02-15T15:31:43;16.80;63.30
21495;DHT22;10909;53.590;10.054;2023-02-15T15:48:38;15.60;63.50
21495;DHT22;10909;53.590;10.054;2023-02-15T15:51:26;15.40;63.00
21495;DHT22;10909;53.590;10.054;2023-02-15T15:56:37;15.00;63.80
21495;DHT22;10909;53.590;10.054;2023-02-15T15:59:07;14.80;63.70
21495;DHT22;10909;53.590;10.054;2023-02-15T16:04:14;14.50;64.20
21495;DHT22;10909;53.590;10.054;2023-02-15T16:06:47;14.30;64.70
21495;DHT22;10909;53.590;10.054;2023-02-15T16:09:19;14.20;65.00
21495;DHT22;10909;53.590;10.054;2023-02-15T16:12:13;14.10;65.10
21495;DHT22;10909;53.590;10.054;2023-02-15T16:14:38;14.00;65.30
21495;DHT22;10909;53.590;10.054;2023-02-15T16:17:07;13.80;65.40
21495;DHT22;10909;53.590;10.054;2023-02-15T16:19:37;13.70;65.60
21495;DHT22;10909;53.590;10.054;2023-02-15T16:22:10;13.60;65.70
21495;DHT22;10909;53.590;10.054;2023-02-15T16:30:30;13.40;66.00
21495;DHT22;10909;53.590;10.054;2023-02-15T16:33:13;13.20;65.80
21495;DHT22;10909;53.590;10.054;2023-02-15T16:35:58;13.10;66.00
21495;DHT22;10909;53.590;10.054;2023-02-15T16:43:54;12.80;66.50
21495;DHT22;10909;53.590;10.054;2023-02-15T16:46:31;12.80;66.70
21495;DHT22;10909;53.590;10.054;2023-02-15T16:49:01;12.70;66.80
21495;DHT22;10909;53.590;10.054;2023-02-15T16:51:30;12.60;67.00
21495;DHT22;10909;53.590;10.054;2023-02-15T16:54:07;12.50;67.10
21495;DHT22;10909;53.590;10.054;2023-02-15T16:56:33;12.50;68.00
21495;DHT22;10909;53.590;10.054;2023-02-15T16:59:00;12.40;67.30
21495;DHT22;10909;53.590;10.054;2023-02-15T17:01:33;12.40;67.50
21495;DHT22;10909;53.590;10.054;2023-02-15T17:07:14;12.30;67.80
21495;DHT22;10909;53.590;10.054;2023-02-15T17:09:52;12.20;67.70
21495;DHT22;10909;53.590;10.054;2023-02-15T17:12:45;12.10;67.90
21495;DHT22;10909;53.590;10.054;2023-02-15T17:15:33;12.10;68.00
21495;DHT22;10909;53.590;10.054;2023-02-15T17:18:06;12.00;68.10
21495;DHT22;10909;53.590;10.054;2023-02-15T17:20:36;12.00;68.30
21495;DHT22;10909;53.590;10.054;2023-02-15T17:23:05;11.90;68.20
21495;DHT22;10909;53.590;10.054;2023-02-15T17:25:38;11.90;68.50
21495;DHT22;10909;53.590;10.054;2023-02-15T17:28:16;11.80;68.40
21495;DHT22;10909;53.590;10.054;2023-02-15T17:30:47;11.80;68.50
21495;DHT22;10909;53.590;10.054;2023-02-15T17:33:37;11.70;68.50
21495;DHT22;10909;53.590;10.054;2023-02-15T17:36:19;11.70;68.60
21495;DHT22;10909;53.590;10.054;2023-02-15T17:41:31;11.60;68.80
21495;DHT22;10909;53.590;10.054;2023-02-15T17:43:59;11.50;68.90
21495;DHT22;10909;53.590;10.054;2023-02-15T17:46:29;11.40;68.90
21495;DHT22;10909;53.590;10.054;2023-02-15T17:48:58;11.40;69.00
21495;DHT22;10909;53.590;10.054;2023-02-15T17:51:31;11.30;69.00
21495;DHT22;10909;53.590;10.054;2023-02-15T17:54:00;11.30;69.20
21495;DHT22;10909;53.590;10.054;2023-02-15T17:59:28;11.20;69.50
21495;DHT22;10909;53.590;10.054;2023-02-15T18:01:55;11.20;69.50
21495;DHT22;10909;53.590;10.054;2023-02-15T18:07:12;11.10;69.60
21495;DHT22;10909;53.590;10.054;2023-02-15T18:09:56;11.10;69.60
21495;DHT22;10909;53.590;10.054;2023-02-15T18:15:12;10.90;69.70
21495;DHT22;10909;53.590;10.054;2023-02-15T18:17:42;10.90;69.90
21495;DHT22;10909;53.590;10.054;2023-02-15T18:20:24;10.90;70.00
21495;DHT22;10909;53.590;10.054;2023-02-15T18:22:53;10.80;70.10
21495;DHT22;10909;53.590;10.054;2023-02-15T18:25:21;10.80;70.10
21495;DHT22;10909;53.590;10.054;2023-02-15T18:27:48;10.70;70.10
21495;DHT22;10909;53.590;10.054;2023-02-15T18:30:22;10.70;70.20
21495;DHT22;10909;53.590;10.054;2023-02-15T18:32:52;10.70;70.40
21495;DHT22;10909;53.590;10.054;2023-02-15T18:35:21;10.60;70.40
21495;DHT22;10909;53.590;10.054;2023-02-15T18:37:48;10.50;70.40
21495;DHT22;10909;53.590;10.054;2023-02-15T18:40:29;10.50;70.50
21495;DHT22;10909;53.590;10.054;2023-02-15T18:42:56;10.40;70.40
21495;DHT22;10909;53.590;10.054;2023-02-15T18:45:28;10.40;70.50
21495;DHT22;10909;53.590;10.054;2023-02-15T18:47:57;10.40;70.80
21495;DHT22;10909;53.590;10.054;2023-02-15T18:50:29;10.30;70.80
21495;DHT22;10909;53.590;10.054;2023-02-15T18:52:56;10.30;70.90
21495;DHT22;10909;53.590;10.054;2023-02-15T18:55:26;10.30;71.00
21495;DHT22;10909;53.590;10.054;2023-02-15T18:57:54;10.20;71.10
21495;DHT22;10909;53.590;10.054;2023-02-15T19:00:24;10.20;71.20
21495;DHT22;10909;53.590;10.054;2023-02-15T19:02:50;10.20;71.30
21495;DHT22;10909;53.590;10.054;2023-02-15T19:05:18;10.10;71.30
21495;DHT22;10909;53.590;10.054;2023-02-15T19:10:18;10.20;71.40
21495;DHT22;10909;53.590;10.054;2023-02-15T19:12:44;10.20;71.40
21495;DHT22;10909;53.590;10.054;2023-02-15T19:17:44;10.10;71.30
21495;DHT22;10909;53.590;10.054;2023-02-15T19:20:37;10.10;71.30
21495;DHT22;10909;53.590;10.054;2023-02-15T19:23:10;10.10;71.40
21495;DHT22;10909;53.590;10.054;2023-02-15T19:25:39;10.00;71.30
21495;DHT22;10909;53.590;10.054;2023-02-15T19:28:15;10.00;71.20
21495;DHT22;10909;53.590;10.054;2023-02-15T19:30:42;10.00;71.30
21495;DHT22;10909;53.590;10.054;2023-02-15T19:33:15;9.90;71.20
21495;DHT22;10909;53.590;10.054;2023-02-15T19:35:43;9.90;71.40
21495;DHT22;10909;53.590;10.054;2023-02-15T19:38:15;9.80;71.30
21495;DHT22;10909;53.590;10.054;2023-02-15T19:40:44;9.80;71.40
21495;DHT22;10909;53.590;10.054;2023-02-15T19:43:17;9.70;71.30
21495;DHT22;10909;53.590;10.054;2023-02-15T19:45:44;9.60;71.40
21495;DHT22;10909;53.590;10.054;2023-02-15T19:48:16;9.60;71.60
21495;DHT22;10909;53.590;10.054;2023-02-15T19:50:47;9.60;71.80
21495;DHT22;10909;53.590;10.054;2023-02-15T19:55:48;9.50;72.10
21495;DHT22;10909;53.590;10.054;2023-02-15T19:58:15;9.50;72.20
21495;DHT22;10909;53.590;10.054;2023-02-15T20:00:47;9.40;72.10